Time;durP1;ratioP1;P1;durP2;ratioP2;P2;SDS_P1;SDS_P2;PMS_P1;PMS_P2;Temp;Humidity;BMP_temperature;BMP_pressure;BME280_temperature;BME280_humidity;BME280_pressure;Samples;Min_cycle;Max_cycle;Signal;HPM_P1;HPM_P2
2021/12/07 00:58:26;;;;;;;9.32;8.52;;;10.10;99.90;;;;;;5025200;28;20405;-71
2021/12/07 01:00:59;;;;;;;8.88;8.07;;;10.10;99.90;;;;;;5023379;28;20211;-71
2021/12/07 01:03:31;;;;;;;8.80;8.02;;;10.10;99.90;;;;;;5025389;28;20210;-74
2021/12/07 01:06:17;;;;;;;8.63;8.03;;;10.10;99.90;;;;;;5026933;28;20272;-74
2021/12/07 01:09:02;;;;;;;9.60;8.80;;;10.10;99.90;;;;;;5024840;28;20460;-72
2021/12/07 01:25:40;;;;;;;8.23;7.53;;;10.10;99.90;;;;;;5000244;28;20529;-69
2021/12/07 01:28:21;;;;;;;7.85;7.15;;;10.10;99.90;;;;;;5036274;28;20379;-71
2021/12/07 01:30:58;;;;;;;18.88;9.02;;;10.20;99.90;;;;;;5025002;28;20230;-73
2021/12/07 01:39:50;;;;;;;7.85;7.25;;;10.30;99.90;;;;;;5021107;28;20214;-73
2021/12/07 01:45:36;;;;;;;7.60;6.43;;;10.20;99.90;;;;;;5040533;28;20221;-71
2021/12/07 01:49:41;;;;;;;8.00;7.30;;;10.20;99.90;;;;;;5021542;28;20460;-71
2021/12/07 01:51:16;;;;;;;7.70;7.10;;;10.30;99.90;;;;;;5031840;28;20603;-77
2021/12/07 01:59:35;;;;;;;10.40;9.60;;;10.40;99.90;;;;;;5021789;28;20496;-76
2021/12/07 02:02:11;;;;;;;20.80;18.65;;;10.50;99.90;;;;;;5043338;28;20467;-74
2021/12/07 02:04:45;;;;;;;11.93;10.97;;;10.50;99.90;;;;;;5020533;28;20218;-73
2021/12/07 02:07:17;;;;;;;88.70;71.35;;;10.50;99.90;;;;;;5030246;28;20471;-72
2021/12/07 02:09:52;;;;;;;54.30;47.30;;;10.50;99.90;;;;;;5027558;28;20233;-73
2021/12/07 02:12:24;;;;;;;13.80;12.40;;;10.50;99.90;;;;;;5035256;28;20490;-73
2021/12/07 02:14:57;;;;;;;52.67;37.43;;;10.50;99.90;;;;;;5024485;28;20465;-69
2021/12/07 02:17:28;;;;;;;8.70;8.00;;;10.40;99.90;;;;;;5030370;28;20972;-70
2021/12/07 02:20:04;;;;;;;8.32;7.63;;;10.50;99.90;;;;;;5038495;28;21030;-73
2021/12/07 02:22:37;;;;;;;8.50;7.80;;;10.60;99.90;;;;;;5043273;28;20218;-73
2021/12/07 02:25:11;;;;;;;8.57;7.93;;;10.60;99.90;;;;;;5024429;28;20563;-72
2021/12/07 02:27:42;;;;;;;39.87;33.50;;;10.60;99.90;;;;;;5028111;28;20464;-71
2021/12/07 02:30:16;;;;;;;8.87;8.17;;;10.60;99.90;;;;;;5034269;28;20471;-70
2021/12/07 02:32:50;;;;;;;7.93;7.30;;;10.60;99.90;;;;;;5017271;28;20477;-71
2021/12/07 02:35:25;;;;;;;8.40;7.70;;;10.60;99.90;;;;;;5029515;28;20465;-71
2021/12/07 02:38:00;;;;;;;8.70;7.93;;;10.70;99.90;;;;;;5035087;28;20544;-71
2021/12/07 02:40:31;;;;;;;9.93;9.13;;;10.70;99.90;;;;;;5034027;28;20984;-71
2021/12/07 02:43:02;;;;;;;12.63;11.50;;;10.70;99.90;;;;;;5018052;28;20465;-71
2021/12/07 02:45:32;;;;;;;14.53;12.90;;;10.60;99.90;;;;;;5037434;28;20811;-72
2021/12/07 02:48:03;;;;;;;35.87;26.87;;;10.50;99.90;;;;;;5023658;28;20465;-71
2021/12/07 02:50:34;;;;;;;10.70;9.33;;;10.60;99.90;;;;;;5049715;28;21094;-71
2021/12/07 02:53:07;;;;;;;10.83;9.80;;;10.60;99.90;;;;;;5040002;28;20489;-71
2021/12/07 02:55:38;;;;;;;17.40;14.70;;;10.60;99.90;;;;;;5021985;28;20484;-73
2021/12/07 02:58:09;;;;;;;14.10;10.40;;;10.60;99.90;;;;;;5031202;28;20457;-73
2021/12/07 03:00:46;;;;;;;10.33;9.33;;;10.60;99.90;;;;;;5041705;28;20547;-68
2021/12/07 03:03:17;;;;;;;9.48;8.40;;;10.60;99.90;;;;;;5016587;28;20547;-67
2021/12/07 03:05:57;;;;;;;12.88;10.02;;;10.70;99.90;;;;;;5032685;28;20645;-67
2021/12/07 03:28:14;;;;;;;7.90;7.20;;;10.70;99.90;;;;;;5020755;28;20504;-72
2021/12/07 03:30:45;;;;;;;7.73;6.93;;;10.70;99.90;;;;;;5038409;28;20469;-67
2021/12/07 03:33:16;;;;;;;7.60;6.90;;;10.70;99.90;;;;;;5038516;28;20988;-67
2021/12/07 03:35:48;;;;;;;10.43;8.07;;;10.70;99.90;;;;;;5027495;28;20464;-68
2021/12/07 03:38:19;;;;;;;9.13;8.27;;;10.70;99.90;;;;;;5032200;28;20453;-68
2021/12/07 03:40:51;;;;;;;7.93;7.27;;;10.70;99.90;;;;;;5012287;28;20461;-68
2021/12/07 03:43:22;;;;;;;7.50;6.90;;;10.70;99.90;;;;;;5021968;28;20457;-68
2021/12/07 03:45:53;;;;;;;7.63;7.03;;;10.70;99.90;;;;;;5030397;28;20473;-68
2021/12/07 03:48:24;;;;;;;7.67;6.97;;;10.70;99.90;;;;;;5026649;28;20468;-68
2021/12/07 03:50:58;;;;;;;8.47;7.73;;;10.80;99.90;;;;;;5024268;28;20469;-69
2021/12/07 03:53:29;;;;;;;8.90;8.00;;;10.70;99.90;;;;;;5028080;28;20484;-68
2021/12/07 03:56:03;;;;;;;9.00;8.20;;;10.80;99.90;;;;;;5025309;28;20460;-68
2021/12/07 03:58:36;;;;;;;10.97;9.37;;;10.70;99.90;;;;;;5027434;28;20832;-68
2021/12/07 04:01:10;;;;;;;9.80;8.90;;;10.70;99.90;;;;;;5027740;28;21048;-67
2021/12/07 04:03:45;;;;;;;13.83;11.63;;;10.70;99.90;;;;;;5027286;28;20452;-68
2021/12/07 04:06:16;;;;;;;12.80;11.40;;;10.70;99.90;;;;;;5025003;28;20462;-69
2021/12/07 04:08:47;;;;;;;13.83;11.10;;;10.70;99.90;;;;;;5029599;28;20461;-69
2021/12/07 04:11:20;;;;;;;10.20;9.07;;;10.80;99.90;;;;;;5019549;28;20833;-67
2021/12/07 04:13:51;;;;;;;12.30;10.27;;;10.70;99.90;;;;;;5023406;28;20971;-68
2021/12/07 04:16:22;;;;;;;9.90;8.90;;;10.70;99.90;;;;;;5030258;28;20563;-68
2021/12/07 04:18:53;;;;;;;10.13;9.13;;;10.80;99.90;;;;;;5026790;28;20960;-68
2021/12/07 04:21:24;;;;;;;10.80;9.70;;;10.90;99.90;;;;;;5030446;28;20894;-68
2021/12/07 04:23:55;;;;;;;15.93;11.23;;;10.90;99.90;;;;;;5028822;28;20568;-68
2021/12/07 04:26:27;;;;;;;12.80;11.47;;;10.90;99.90;;;;;;5023225;28;20536;-67
2021/12/07 04:28:58;;;;;;;31.03;15.60;;;10.90;99.90;;;;;;5028823;28;20464;-67
2021/12/07 04:31:29;;;;;;;15.90;13.83;;;10.90;99.90;;;;;;5034897;28;20457;-68
2021/12/07 04:34:00;;;;;;;1639.13;267.33;;;10.90;99.90;;;;;;5028269;28;20802;-68
2021/12/07 04:36:31;;;;;;;20.00;17.10;;;11.00;99.90;;;;;;5042739;28;20959;-67
2021/12/07 04:39:02;;;;;;;17.57;15.80;;;10.90;99.90;;;;;;5027360;28;20465;-68
2021/12/07 04:41:37;;;;;;;17.73;15.83;;;10.80;99.90;;;;;;5009440;28;20509;-68
2021/12/07 04:44:08;;;;;;;17.20;15.47;;;10.80;99.90;;;;;;5024503;28;20528;-69
2021/12/07 04:46:45;;;;;;;16.30;14.63;;;10.70;99.90;;;;;;5024321;28;20492;-68
2021/12/07 04:49:51;;;;;;;17.60;15.90;;;10.70;99.90;;;;;;5027951;28;20455;-67
2021/12/07 04:58:02;;;;;;;18.70;16.70;;;10.70;99.90;;;;;;5030056;28;20458;-67
2021/12/07 05:00:33;;;;;;;21.93;19.53;;;10.60;99.90;;;;;;5037363;28;20468;-66
2021/12/07 05:03:09;;;;;;;19.97;17.90;;;10.60;99.90;;;;;;5035287;28;20472;-66
2021/12/07 05:05:45;;;;;;;19.77;17.77;;;10.60;99.90;;;;;;5026888;28;20511;-66
2021/12/07 05:08:28;;;;;;;19.73;17.23;;;10.50;99.90;;;;;;5046970;28;20535;-66
2021/12/07 05:13:55;;;;;;;16.53;14.87;;;10.60;99.90;;;;;;5002558;28;20515;-66
2021/12/07 05:23:54;;;;;;;12.83;11.57;;;10.60;99.90;;;;;;5032005;28;20461;-68
2021/12/07 05:25:25;;;;;;;12.37;11.07;;;10.60;99.90;;;;;;5028137;28;20453;-67
2021/12/07 05:39:09;;;;;;;11.40;10.17;;;10.60;99.90;;;;;;5027367;28;20967;-69
2021/12/07 05:41:40;;;;;;;11.93;10.70;;;10.50;99.90;;;;;;5022476;28;20471;-68
2021/12/07 05:44:11;;;;;;;10.00;9.10;;;10.50;99.90;;;;;;5021772;28;20566;-68
2021/12/07 05:46:43;;;;;;;8.70;7.90;;;10.50;99.90;;;;;;5014432;28;20464;-69
2021/12/07 05:49:14;;;;;;;7.70;7.00;;;10.50;99.90;;;;;;5018167;28;20454;-68
2021/12/07 05:51:45;;;;;;;8.73;7.63;;;10.40;99.90;;;;;;5017439;28;20468;-67
2021/12/07 05:54:16;;;;;;;9.63;8.77;;;10.40;99.90;;;;;;5026431;28;20217;-68
2021/12/07 05:56:47;;;;;;;9.70;8.70;;;10.40;99.90;;;;;;5014395;28;20832;-68
2021/12/07 05:59:18;;;;;;;7.40;6.60;;;10.40;99.90;;;;;;5020137;28;20519;-68
2021/12/07 06:01:50;;;;;;;7.38;6.68;;;10.40;99.90;;;;;;5024005;28;20477;-68
2021/12/07 06:04:21;;;;;;;6.90;6.20;;;10.30;99.90;;;;;;5020888;28;20714;-68
2021/12/07 06:06:52;;;;;;;5.97;5.45;;;10.30;99.90;;;;;;5030776;28;20214;-68
2021/12/07 06:09:23;;;;;;;5.47;4.70;;;10.30;99.90;;;;;;5026326;28;20206;-67
2021/12/07 06:11:54;;;;;;;5.33;4.83;;;10.30;99.90;;;;;;5020498;28;20552;-68
2021/12/07 06:14:30;;;;;;;5.40;5.00;;;10.10;99.90;;;;;;5018260;28;20481;-68
2021/12/07 06:17:03;;;;;;;4.83;4.33;;;10.10;99.90;;;;;;5027637;28;20343;-68
2021/12/07 06:19:33;;;;;;;5.45;4.95;;;10.00;99.90;;;;;;5019820;28;20472;-67
2021/12/07 06:22:06;;;;;;;6.17;5.43;;;10.00;99.90;;;;;;5014129;28;20215;-68
2021/12/07 06:24:37;;;;;;;5.70;5.18;;;10.00;99.90;;;;;;5023998;28;20542;-67
2021/12/07 06:27:08;;;;;;;5.72;5.22;;;10.00;99.90;;;;;;5032489;28;20213;-68
2021/12/07 06:29:39;;;;;;;4.97;4.57;;;10.00;99.90;;;;;;5023148;28;20688;-68
2021/12/07 06:32:12;;;;;;;5.03;4.63;;;10.00;99.90;;;;;;5028841;28;20211;-67
2021/12/07 06:34:43;;;;;;;4.77;4.47;;;9.90;99.90;;;;;;5028499;28;20503;-67
2021/12/07 06:37:14;;;;;;;4.97;4.50;;;10.00;99.90;;;;;;5032458;28;20466;-67
2021/12/07 06:39:45;;;;;;;5.20;4.70;;;9.90;99.90;;;;;;5033475;28;20215;-68
2021/12/07 06:42:16;;;;;;;5.70;5.10;;;10.00;99.90;;;;;;5021858;28;20223;-66
2021/12/07 06:44:46;;;;;;;5.75;5.13;;;10.00;99.90;;;;;;5019459;28;20706;-67
2021/12/07 06:47:19;;;;;;;6.05;5.55;;;9.90;99.90;;;;;;5031786;28;20216;-67
2021/12/07 06:49:50;;;;;;;7.30;6.60;;;9.80;99.90;;;;;;5029925;28;20216;-67
2021/12/07 06:52:21;;;;;;;6.97;6.38;;;9.80;99.90;;;;;;5026427;28;20215;-67
2021/12/07 06:54:51;;;;;;;7.22;6.50;;;9.80;99.90;;;;;;5027731;28;20229;-67
2021/12/07 06:57:22;;;;;;;7.18;6.47;;;9.80;99.90;;;;;;5031840;28;20218;-67
2021/12/07 06:59:53;;;;;;;6.68;5.97;;;9.70;99.90;;;;;;5030275;28;20240;-67
2021/12/07 07:02:26;;;;;;;6.90;6.20;;;9.70;99.90;;;;;;5022510;28;20264;-67
2021/12/07 07:04:57;;;;;;;7.17;6.47;;;9.70;99.90;;;;;;5028875;28;20685;-67
2021/12/07 07:07:28;;;;;;;6.60;6.00;;;9.70;99.90;;;;;;5029348;28;20465;-67
2021/12/07 07:09:59;;;;;;;7.22;6.32;;;9.70;99.90;;;;;;5033840;28;20297;-68
2021/12/07 07:12:29;;;;;;;6.93;6.32;;;9.60;99.90;;;;;;5024701;28;20297;-68
2021/12/07 07:15:03;;;;;;;6.80;6.10;;;9.60;99.90;;;;;;5026652;28;20238;-68
2021/12/07 07:17:35;;;;;;;7.32;6.63;;;9.50;99.90;;;;;;5032172;28;20215;-67
2021/12/07 07:20:08;;;;;;;6.18;5.60;;;9.50;99.90;;;;;;5025168;28;20219;-68
2021/12/07 07:22:39;;;;;;;7.18;6.47;;;9.50;99.90;;;;;;5022748;28;20698;-69
2021/12/07 07:25:14;;;;;;;8.55;7.20;;;9.50;99.90;;;;;;5032052;28;20203;-68
2021/12/07 07:27:45;;;;;;;7.53;6.82;;;9.50;99.90;;;;;;5027649;28;20214;-68
2021/12/07 07:30:19;;;;;;;7.18;6.15;;;9.50;99.90;;;;;;5029725;28;20218;-68
2021/12/07 07:32:52;;;;;;;7.78;7.07;;;9.50;99.90;;;;;;5022797;28;20742;-68
2021/12/07 07:35:23;;;;;;;6.00;5.50;;;9.50;99.90;;;;;;5026767;28;20728;-68
2021/12/07 07:37:57;;;;;;;6.70;6.10;;;9.50;99.90;;;;;;5037337;28;20324;-68
2021/12/07 07:40:27;;;;;;;5.55;5.15;;;9.50;99.90;;;;;;5032003;28;20472;-68
2021/12/07 07:42:58;;;;;;;6.55;5.43;;;9.60;99.90;;;;;;5029867;28;20302;-67
2021/12/07 07:45:30;;;;;;;6.05;5.53;;;9.60;99.90;;;;;;5030303;28;20540;-68
2021/12/07 07:48:02;;;;;;;6.25;5.70;;;9.60;99.90;;;;;;5037696;28;20228;-67
2021/12/07 07:50:33;;;;;;;7.05;6.40;;;9.60;99.90;;;;;;5025321;28;20321;-67
2021/12/07 07:53:04;;;;;;;6.75;6.18;;;9.50;99.90;;;;;;5018915;28;20691;-67
2021/12/07 07:55:37;;;;;;;6.30;5.72;;;9.40;99.90;;;;;;5035765;28;20223;-67
2021/12/07 07:58:10;;;;;;;6.50;5.90;;;9.40;99.90;;;;;;5035869;28;20240;-67
2021/12/07 08:00:43;;;;;;;6.30;5.75;;;9.30;99.90;;;;;;5035375;28;20690;-67
2021/12/07 08:03:16;;;;;;;6.80;6.20;;;9.20;99.90;;;;;;5025762;28;20253;-67
2021/12/07 08:05:47;;;;;;;6.97;6.28;;;9.20;99.90;;;;;;5021891;28;20215;-67
2021/12/07 08:08:21;;;;;;;6.53;6.03;;;9.20;99.90;;;;;;5020711;28;20229;-67
2021/12/07 08:10:55;;;;;;;6.68;6.18;;;9.20;99.90;;;;;;5022584;28;20223;-67
2021/12/07 08:13:30;;;;;;;7.15;6.45;;;9.20;99.90;;;;;;5016438;28;20701;-67
2021/12/07 08:16:01;;;;;;;7.53;6.82;;;9.30;99.90;;;;;;5020192;28;20236;-67
2021/12/07 08:18:34;;;;;;;6.70;6.10;;;9.30;99.90;;;;;;5023757;28;20373;-68
2021/12/07 08:21:07;;;;;;;6.43;5.90;;;9.30;99.90;;;;;;5020369;28;20222;-68
2021/12/07 08:23:38;;;;;;;7.53;6.85;;;9.30;99.90;;;;;;5020256;28;20234;-68
2021/12/07 08:26:11;;;;;;;7.57;6.90;;;9.30;99.90;;;;;;5026192;28;20665;-68
2021/12/07 08:28:42;;;;;;;7.13;6.50;;;9.30;99.90;;;;;;5032338;28;20210;-68
2021/12/07 08:31:13;;;;;;;7.20;6.60;;;9.30;99.90;;;;;;5020043;28;20265;-68
2021/12/07 08:33:45;;;;;;;7.60;6.90;;;9.30;99.90;;;;;;5026023;28;20221;-68
2021/12/07 08:36:17;;;;;;;6.78;6.18;;;9.30;99.90;;;;;;5030028;28;20964;-67
2021/12/07 08:38:50;;;;;;;6.93;6.32;;;9.20;99.90;;;;;;5036346;28;20746;-67
2021/12/07 08:41:21;;;;;;;5.82;5.32;;;9.30;99.90;;;;;;5037223;28;20270;-67
2021/12/07 08:43:53;;;;;;;5.63;5.13;;;9.40;99.90;;;;;;5026541;28;20249;-67
2021/12/07 08:46:23;;;;;;;6.53;5.93;;;9.40;99.90;;;;;;5029086;28;20300;-68
2021/12/07 08:48:56;;;;;;;6.95;5.82;;;9.40;99.90;;;;;;5012493;28;20621;-67
2021/12/07 08:51:27;;;;;;;6.28;5.78;;;9.40;99.90;;;;;;5020454;28;20713;-67
2021/12/07 08:54:04;;;;;;;6.80;5.72;;;9.40;99.90;;;;;;5028656;28;20232;-68
2021/12/07 08:59:41;;;;;;;6.22;5.63;;;9.40;99.90;;;;;;5023259;28;20215;-67
2021/12/07 09:02:15;;;;;;;5.55;5.15;;;9.40;99.90;;;;;;5018164;28;20215;-67
2021/12/07 09:04:49;;;;;;;5.28;4.88;;;9.40;99.90;;;;;;5028828;28;20205;-67
2021/12/07 09:07:20;;;;;;;5.03;4.63;;;9.40;99.90;;;;;;5026569;28;20215;-67
2021/12/07 09:09:51;;;;;;;5.67;4.97;;;9.30;99.90;;;;;;5024695;28;20214;-67
2021/12/07 09:12:23;;;;;;;5.68;5.13;;;9.30;99.90;;;;;;5028487;28;20481;-67
2021/12/07 09:14:54;;;;;;;5.80;5.20;;;9.40;99.90;;;;;;5026342;28;20229;-67
2021/12/07 09:17:25;;;;;;;5.90;5.40;;;9.40;99.90;;;;;;5025684;28;20305;-67
2021/12/07 09:19:57;;;;;;;5.90;5.40;;;9.50;99.90;;;;;;5021946;28;20705;-67
2021/12/07 09:22:28;;;;;;;4.93;4.53;;;9.50;99.90;;;;;;5024407;28;20210;-68
2021/12/07 09:24:59;;;;;;;5.00;4.60;;;9.40;99.90;;;;;;5033009;28;20298;-67
2021/12/07 09:27:30;;;;;;;4.47;4.18;;;9.40;99.90;;;;;;5031544;28;20293;-67
2021/12/07 09:30:07;;;;;;;5.35;4.85;;;9.30;99.90;;;;;;5018346;28;20218;-67
2021/12/07 09:32:38;;;;;;;5.80;5.30;;;9.40;99.90;;;;;;5025642;28;20241;-67
2021/12/07 09:35:12;;;;;;;5.20;4.80;;;9.40;99.90;;;;;;5022532;28;20323;-68
2021/12/07 09:37:48;;;;;;;4.90;4.50;;;9.40;99.90;;;;;;5025163;28;20275;-68
2021/12/07 09:40:21;;;;;;;4.93;4.53;;;9.30;99.90;;;;;;5030758;28;20225;-68
2021/12/07 09:42:52;;;;;;;6.15;5.65;;;9.40;99.90;;;;;;5027372;28;20220;-67
2021/12/07 09:45:25;;;;;;;5.25;4.85;;;9.30;99.90;;;;;;5035079;28;20289;-67
2021/12/07 09:47:56;;;;;;;4.97;4.57;;;9.30;99.90;;;;;;5023061;28;20228;-67
2021/12/07 09:50:29;;;;;;;5.57;5.07;;;9.20;99.90;;;;;;5022179;28;20211;-67
2021/12/07 09:52:59;;;;;;;8.43;5.45;;;9.30;99.90;;;;;;5028779;28;20221;-66
2021/12/07 09:55:31;;;;;;;5.18;4.68;;;9.20;99.90;;;;;;5023340;28;20658;-67
2021/12/07 09:58:02;;;;;;;4.80;4.50;;;9.20;99.90;;;;;;5029481;28;20211;-67
2021/12/07 10:00:34;;;;;;;4.95;4.55;;;9.10;99.90;;;;;;5036932;28;20216;-68
2021/12/07 10:03:05;;;;;;;4.40;4.10;;;9.20;99.90;;;;;;5025550;28;20222;-67
2021/12/07 10:05:40;;;;;;;4.55;4.15;;;9.10;99.90;;;;;;5023004;28;20503;-67
2021/12/07 10:08:12;;;;;;;4.10;3.80;;;9.10;99.90;;;;;;5025053;28;20603;-67
2021/12/07 10:10:45;;;;;;;3.95;3.67;;;9.10;99.90;;;;;;5007789;28;20215;-67
2021/12/07 10:13:17;;;;;;;4.28;3.97;;;9.20;99.90;;;;;;5026886;28;20210;-67
2021/12/07 10:15:48;;;;;;;3.75;3.45;;;9.20;99.90;;;;;;5018339;28;20237;-67
2021/12/07 10:18:21;;;;;;;3.70;3.43;;;9.20;99.90;;;;;;5016711;28;20253;-68
2021/12/07 10:21:16;;;;;;;4.03;3.72;;;9.20;99.90;;;;;;5024686;28;20472;-67
2021/12/07 10:23:50;;;;;;;3.65;3.35;;;9.10;99.90;;;;;;5017689;28;20818;-67
2021/12/07 10:26:23;;;;;;;3.85;3.55;;;9.10;99.90;;;;;;5015014;28;20633;-67
2021/12/07 10:28:57;;;;;;;4.32;3.92;;;9.10;99.90;;;;;;5024427;28;20229;-68
2021/12/07 10:31:32;;;;;;;4.13;3.72;;;9.20;99.90;;;;;;5021246;28;20230;-67
2021/12/07 10:34:06;;;;;;;4.40;4.10;;;9.20;99.90;;;;;;5027935;28;20260;-67
2021/12/07 10:36:43;;;;;;;4.70;4.30;;;9.10;99.90;;;;;;5028021;28;20710;-68
2021/12/07 10:39:16;;;;;;;4.90;4.50;;;9.20;99.90;;;;;;5014307;28;20231;-68
2021/12/07 10:41:48;;;;;;;4.90;4.50;;;9.20;99.90;;;;;;5018024;28;20260;-68
2021/12/07 10:44:20;;;;;;;4.10;3.80;;;9.20;99.90;;;;;;5028590;28;20225;-67
2021/12/07 10:46:56;;;;;;;4.05;3.75;;;9.20;99.90;;;;;;5020164;28;20701;-68
2021/12/07 10:49:44;;;;;;;3.35;3.15;;;9.20;99.90;;;;;;5016097;28;20588;-69
2021/12/07 10:52:34;;;;;;;3.15;2.95;;;9.20;99.90;;;;;;5020439;28;20214;-71
2021/12/07 10:55:12;;;;;;;3.00;2.80;;;9.20;99.90;;;;;;5028938;28;20232;-68
2021/12/07 10:57:46;;;;;;;3.13;2.92;;;9.20;99.90;;;;;;5030436;28;20632;-68
2021/12/07 11:00:21;;;;;;;3.70;3.40;;;9.10;99.90;;;;;;5026321;28;20213;-67
2021/12/07 11:02:56;;;;;;;2.97;2.78;;;9.10;99.90;;;;;;5024271;28;20485;-67
2021/12/07 11:05:29;;;;;;;3.38;3.10;;;9.10;99.90;;;;;;5025921;28;20202;-66
2021/12/07 11:08:02;;;;;;;3.33;3.03;;;9.10;99.90;;;;;;5017801;28;20625;-67
2021/12/07 11:10:34;;;;;;;3.80;3.55;;;9.10;99.90;;;;;;5025486;28;20207;-67
2021/12/07 11:13:12;;;;;;;2.90;2.70;;;9.00;99.90;;;;;;5020776;28;20234;-66
2021/12/07 11:15:49;;;;;;;3.30;3.00;;;9.00;99.90;;;;;;5036099;28;20233;-68
2021/12/07 11:18:23;;;;;;;2.55;2.35;;;9.00;99.90;;;;;;5024800;28;20210;-67
2021/12/07 11:20:55;;;;;;;2.80;2.60;;;9.00;99.90;;;;;;5018363;28;20219;-67
2021/12/07 11:23:32;;;;;;;3.22;3.03;;;9.00;99.90;;;;;;5024013;28;20245;-67
2021/12/07 11:31:44;;;;;;;3.30;3.10;;;9.10;99.90;;;;;;5034065;28;20229;-66
2021/12/07 11:34:18;;;;;;;3.78;3.30;;;9.10;99.90;;;;;;5027933;28;20674;-66
2021/12/07 11:36:51;;;;;;;3.45;3.25;;;9.10;99.90;;;;;;5022289;28;20222;-67
2021/12/07 11:39:31;;;;;;;3.08;2.88;;;9.10;99.90;;;;;;5025383;28;20305;-67
2021/12/07 11:42:04;;;;;;;3.70;3.50;;;9.10;99.90;;;;;;5036757;28;20217;-67
2021/12/07 11:44:38;;;;;;;3.90;3.60;;;9.30;99.90;;;;;;5024593;28;20714;-66
2021/12/07 11:47:09;;;;;;;3.80;3.50;;;9.30;99.90;;;;;;5020436;28;20454;-66
2021/12/07 11:49:40;;;;;;;3.08;2.88;;;9.20;99.90;;;;;;5029867;28;20210;-67
2021/12/07 11:52:12;;;;;;;2.35;2.25;;;9.10;99.90;;;;;;5027250;28;20290;-66
2021/12/07 11:54:45;;;;;;;2.85;2.65;;;9.00;99.90;;;;;;5033535;28;20251;-66
2021/12/07 11:57:18;;;;;;;2.85;2.65;;;9.00;99.90;;;;;;5037820;28;20221;-66
2021/12/07 11:59:51;;;;;;;2.90;2.70;;;8.90;99.90;;;;;;5025396;28;20214;-67
2021/12/07 12:02:22;;;;;;;2.72;2.53;;;8.90;99.90;;;;;;5022933;28;20218;-67
2021/12/07 12:04:53;;;;;;;3.28;3.08;;;8.90;99.90;;;;;;5022554;28;20207;-67
2021/12/07 12:07:24;;;;;;;3.58;3.05;;;8.80;99.90;;;;;;5028370;28;20211;-67
2021/12/07 12:09:57;;;;;;;3.97;3.60;;;8.80;99.90;;;;;;5032299;28;20244;-67
2021/12/07 12:12:39;;;;;;;4.82;3.58;;;8.80;99.90;;;;;;5030760;28;20218;-66
2021/12/07 12:15:33;;;;;;;3.45;3.25;;;8.80;99.90;;;;;;5026174;28;20234;-67
2021/12/07 12:18:14;;;;;;;5.65;5.15;;;8.80;99.90;;;;;;5014341;28;20314;-67
2021/12/07 12:21:03;;;;;;;6.22;4.80;;;8.80;99.90;;;;;;5013898;28;20211;-67
2021/12/07 12:23:43;;;;;;;5.00;4.40;;;8.70;99.90;;;;;;5033791;28;20209;-67
2021/12/07 12:26:20;;;;;;;4.60;3.80;;;8.80;99.90;;;;;;5023746;28;20212;-67
2021/12/07 12:28:52;;;;;;;4.80;4.40;;;8.70;99.90;;;;;;5025201;28;20684;-67
2021/12/07 12:31:44;;;;;;;5.55;4.63;;;8.80;99.90;;;;;;5013454;28;20221;-67
2021/12/07 12:34:21;;;;;;;4.65;4.25;;;8.80;99.90;;;;;;5031864;28;20209;-67
2021/12/07 12:37:04;;;;;;;4.40;4.10;;;8.80;99.90;;;;;;5039820;28;20731;-66
2021/12/07 12:39:48;;;;;;;4.00;3.70;;;8.90;99.90;;;;;;5032495;28;20210;-67
2021/12/07 12:42:32;;;;;;;5.82;4.20;;;9.00;99.90;;;;;;5020002;28;20206;-67
2021/12/07 12:45:19;;;;;;;4.20;3.90;;;8.90;99.90;;;;;;5029353;28;20218;-67
2021/12/07 12:47:57;;;;;;;4.28;3.97;;;8.80;99.90;;;;;;5024371;28;20221;-66
2021/12/07 12:50:31;;;;;;;4.60;4.20;;;8.80;99.90;;;;;;5020525;28;20296;-66
2021/12/07 12:53:04;;;;;;;4.15;3.85;;;8.80;99.90;;;;;;5021078;28;20585;-67
2021/12/07 12:55:41;;;;;;;4.40;4.00;;;8.80;99.90;;;;;;5016126;28;20210;-66
2021/12/07 12:58:18;;;;;;;4.38;3.97;;;8.90;99.90;;;;;;5030557;28;20579;-66
2021/12/07 13:01:10;;;;;;;3.77;3.57;;;8.80;99.90;;;;;;5026747;28;20297;-67
2021/12/07 13:03:46;;;;;;;3.20;3.00;;;8.80;99.90;;;;;;5014964;28;20504;-67
2021/12/07 13:06:20;;;;;;;4.03;3.55;;;8.80;99.90;;;;;;5025849;28;20214;-66
2021/12/07 13:09:03;;;;;;;3.97;3.67;;;8.70;99.90;;;;;;5024003;28;20222;-67
2021/12/07 13:11:39;;;;;;;4.03;3.72;;;8.70;99.90;;;;;;5026854;28;20225;-67
2021/12/07 13:14:15;;;;;;;3.97;3.67;;;8.70;99.90;;;;;;5023524;28;20674;-66
2021/12/07 13:16:51;;;;;;;3.90;3.60;;;8.70;99.90;;;;;;5028447;28;20230;-67
2021/12/07 13:19:22;;;;;;;3.40;3.20;;;8.60;99.90;;;;;;5028904;28;20532;-66
2021/12/07 13:21:53;;;;;;;3.37;3.17;;;8.50;99.90;;;;;;5020487;28;20211;-68
2021/12/07 13:24:35;;;;;;;2.90;2.70;;;8.60;99.90;;;;;;5024911;28;20567;-68
2021/12/07 13:27:11;;;;;;;2.85;2.65;;;8.50;99.90;;;;;;5031435;28;20214;-67
2021/12/07 13:29:48;;;;;;;2.90;2.70;;;8.60;99.90;;;;;;5021853;28;20556;-67
2021/12/07 13:32:20;;;;;;;2.95;2.75;;;8.60;99.90;;;;;;5025982;28;20240;-67
2021/12/07 13:35:03;;;;;;;3.00;2.80;;;8.60;99.90;;;;;;5026697;28;20675;-66
2021/12/07 13:37:47;;;;;;;3.30;3.10;;;8.60;99.90;;;;;;5016562;28;20233;-66
2021/12/07 13:40:22;;;;;;;2.80;2.60;;;8.60;99.90;;;;;;5033686;28;20305;-66
2021/12/07 13:42:54;;;;;;;3.45;3.15;;;8.60;99.90;;;;;;5033168;28;20213;-67
2021/12/07 13:45:27;;;;;;;3.72;3.38;;;8.60;99.90;;;;;;5027140;28;20240;-67
2021/12/07 13:47:59;;;;;;;3.45;3.15;;;8.80;99.90;;;;;;5018977;28;20294;-67
2021/12/07 13:50:31;;;;;;;2.25;2.15;;;8.80;99.90;;;;;;5031463;28;20218;-66
2021/12/07 13:53:02;;;;;;;2.05;1.95;;;8.70;99.90;;;;;;5032383;28;20265;-67
2021/12/07 13:55:37;;;;;;;2.47;2.28;;;8.70;99.90;;;;;;5020848;28;20221;-67
2021/12/07 13:58:09;;;;;;;1.92;1.83;;;8.70;99.90;;;;;;5028573;28;20229;-67
2021/12/07 14:00:41;;;;;;;1.77;1.67;;;8.70;99.90;;;;;;5022396;28;20217;-67
2021/12/07 14:03:15;;;;;;;2.00;1.90;;;8.60;99.90;;;;;;5026244;28;20288;-67
2021/12/07 14:05:50;;;;;;;1.90;1.80;;;8.60;99.90;;;;;;5015887;28;20211;-67
2021/12/07 14:08:21;;;;;;;1.38;1.30;;;8.60;99.90;;;;;;5010271;28;20219;-67
2021/12/07 14:10:55;;;;;;;1.38;1.27;;;8.50;99.90;;;;;;5015295;28;20290;-67
2021/12/07 14:13:26;;;;;;;1.23;1.13;;;8.50;99.90;;;;;;5014723;28;20221;-67
2021/12/07 14:16:16;;;;;;;1.60;1.50;;;8.50;99.90;;;;;;5033321;28;20234;-67
2021/12/07 14:18:47;;;;;;;1.55;1.45;;;8.50;99.90;;;;;;5018175;28;20298;-67
2021/12/07 14:21:18;;;;;;;1.35;1.25;;;8.50;99.90;;;;;;5023091;28;20207;-67
2021/12/07 14:23:54;;;;;;;1.88;1.30;;;8.50;99.90;;;;;;5020688;28;20210;-67
2021/12/07 14:26:26;;;;;;;1.20;1.10;;;8.40;99.90;;;;;;5015384;28;20233;-67
2021/12/07 14:29:02;;;;;;;1.50;1.40;;;8.40;99.90;;;;;;5015395;28;20214;-67
2021/12/07 14:31:39;;;;;;;1.60;1.50;;;8.40;99.90;;;;;;5029630;28;20668;-67
2021/12/07 14:34:12;;;;;;;1.50;1.40;;;8.40;99.90;;;;;;5024012;28;21133;-67
2021/12/07 14:36:45;;;;;;;2.20;1.50;;;8.50;99.90;;;;;;5037318;28;20225;-68
2021/12/07 14:39:18;;;;;;;2.08;1.98;;;8.50;99.90;;;;;;5025972;28;20222;-67
2021/12/07 14:41:52;;;;;;;1.70;1.60;;;8.50;99.90;;;;;;5028530;28;20252;-67
2021/12/07 14:44:25;;;;;;;2.30;2.20;;;8.50;99.90;;;;;;5031515;28;20214;-67
2021/12/07 14:47:04;;;;;;;3.03;2.28;;;8.50;99.90;;;;;;5028083;28;20214;-67
2021/12/07 14:49:37;;;;;;;2.70;2.10;;;8.50;99.90;;;;;;5028242;28;20221;-68
2021/12/07 14:52:10;;;;;;;2.20;2.10;;;8.50;99.90;;;;;;5023909;28;20416;-67
2021/12/07 14:54:42;;;;;;;2.75;2.55;;;8.50;99.90;;;;;;5017034;28;20216;-67
2021/12/07 14:57:13;;;;;;;2.72;2.53;;;8.50;99.90;;;;;;5033259;28;20654;-67
2021/12/07 14:59:45;;;;;;;2.25;2.10;;;8.50;99.90;;;;;;5018223;28;20927;-68
2021/12/07 15:02:18;;;;;;;3.95;3.60;;;8.50;99.90;;;;;;5016904;28;20222;-69
2021/12/07 15:04:56;;;;;;;4.70;4.25;;;8.50;99.90;;;;;;5025515;28;20214;-70
2021/12/07 15:07:32;;;;;;;3.45;3.25;;;8.50;99.90;;;;;;5028137;28;20206;-68
2021/12/07 15:10:06;;;;;;;3.65;3.35;;;8.50;99.90;;;;;;5017912;28;20630;-67
2021/12/07 15:12:38;;;;;;;3.08;2.88;;;8.60;99.90;;;;;;5036519;28;20214;-73
2021/12/07 15:15:10;;;;;;;3.42;3.13;;;8.50;99.90;;;;;;5025099;28;20615;-68
2021/12/07 15:17:43;;;;;;;4.13;3.75;;;8.50;99.90;;;;;;5035657;28;20319;-68
2021/12/07 15:20:15;;;;;;;3.80;3.40;;;8.50;99.90;;;;;;5028529;28;20222;-67
2021/12/07 15:22:46;;;;;;;3.65;3.35;;;8.50;99.90;;;;;;5029288;28;20214;-67
2021/12/07 15:25:17;;;;;;;4.13;3.33;;;8.40;99.90;;;;;;5022706;28;20225;-67
2021/12/07 15:27:52;;;;;;;2.70;2.50;;;8.40;99.90;;;;;;5036873;28;20225;-67
2021/12/07 15:30:29;;;;;;;3.08;2.88;;;8.30;99.90;;;;;;5024443;28;20224;-66
2021/12/07 15:33:03;;;;;;;2.92;2.63;;;8.30;99.90;;;;;;5028064;28;20214;-66
2021/12/07 15:35:34;;;;;;;2.22;2.13;;;8.30;99.90;;;;;;5031504;28;20221;-66
2021/12/07 15:38:05;;;;;;;2.35;2.25;;;8.20;99.90;;;;;;5028221;28;20314;-65
2021/12/07 15:40:36;;;;;;;2.25;2.15;;;8.20;99.90;;;;;;5027340;28;20237;-65
2021/12/07 15:43:07;;;;;;;2.35;2.22;;;8.30;99.90;;;;;;5026665;28;20562;-65
2021/12/07 15:45:38;;;;;;;273.48;44.00;;;8.30;99.90;;;;;;5026638;28;20227;-64